Time;durP1;ratioP1;P1;durP2;ratioP2;P2;SDS_P1;SDS_P2;PMS_P1;PMS_P2;Temp;Humidity;BMP_temperature;BMP_pressure;BME280_temperature;BME280_humidity;BME280_pressure;Samples;Min_cycle;Max_cycle;Signal;HPM_P1;HPM_P2
2023/03/16 00:01:05;;;;;;;2.67;1.70;;;;;;;;;;5062847;28;20234;-51
2023/03/16 00:03:32;;;;;;;3.30;1.87;;;;;;;;;;5069410;28;20253;-51
2023/03/16 00:05:58;;;;;;;5.00;2.20;;;;;;;;;;5064139;28;20658;-51
2023/03/16 00:08:25;;;;;;;1.53;1.20;;;;;;;;;;5068736;28;20229;-52
2023/03/16 00:10:53;;;;;;;3.97;2.07;;;;;;;;;;5062194;28;20240;-52
2023/03/16 00:13:22;;;;;;;4.17;1.53;;;;;;;;;;5070469;28;20736;-53
2023/03/16 00:15:49;;;;;;;5.13;1.87;;;;;;;;;;5066130;28;20854;-54
2023/03/16 00:18:16;;;;;;;8.93;2.00;;;;;;;;;;5057763;28;20608;-53
2023/03/16 00:20:42;;;;;;;7.43;1.73;;;;;;;;;;5061526;28;20772;-51
2023/03/16 00:23:09;;;;;;;2.67;1.50;;;;;;;;;;5053626;28;20689;-52
2023/03/16 00:25:35;;;;;;;4.87;1.90;;;;;;;;;;5062809;28;20308;-53
2023/03/16 00:28:03;;;;;;;4.17;1.80;;;;;;;;;;5071926;28;20269;-52
2023/03/16 00:30:30;;;;;;;3.83;1.57;;;;;;;;;;5083828;28;20250;-51
2023/03/16 00:32:56;;;;;;;4.73;1.47;;;;;;;;;;5088293;28;20238;-52
2023/03/16 00:35:23;;;;;;;3.90;1.80;;;;;;;;;;5083138;28;20287;-56
2023/03/16 00:37:49;;;;;;;2.87;1.70;;;;;;;;;;5083595;28;20242;-52
2023/03/16 00:40:16;;;;;;;3.20;2.43;;;;;;;;;;5084214;28;20305;-52
2023/03/16 00:42:42;;;;;;;5.20;2.07;;;;;;;;;;5068255;28;20288;-52
2023/03/16 00:45:11;;;;;;;5.17;1.90;;;;;;;;;;5049505;28;20235;-50
2023/03/16 00:47:38;;;;;;;3.23;2.10;;;;;;;;;;5052718;28;20246;-51
2023/03/16 00:50:04;;;;;;;9.63;2.13;;;;;;;;;;5062742;28;20728;-52
2023/03/16 00:52:31;;;;;;;2.53;1.63;;;;;;;;;;5060827;28;20252;-53
2023/03/16 00:54:57;;;;;;;2.90;1.73;;;;;;;;;;5061758;28;20280;-52
2023/03/16 00:57:26;;;;;;;3.93;1.30;;;;;;;;;;5057493;28;20234;-53
2023/03/16 00:59:53;;;;;;;3.43;1.47;;;;;;;;;;5059571;28;20675;-54
2023/03/16 01:02:22;;;;;;;4.03;1.47;;;;;;;;;;5060688;28;20279;-50
2023/03/16 01:04:48;;;;;;;4.70;1.73;;;;;;;;;;5062130;28;20265;-52
2023/03/16 01:07:15;;;;;;;4.30;2.80;;;;;;;;;;5058306;28;20495;-52
2023/03/16 01:09:42;;;;;;;7.77;2.13;;;;;;;;;;5063288;28;20231;-51
2023/03/16 01:12:10;;;;;;;6.00;2.20;;;;;;;;;;5061077;28;20241;-53
2023/03/16 01:14:37;;;;;;;2.87;1.67;;;;;;;;;;5054671;28;20246;-52
2023/03/16 01:17:05;;;;;;;4.47;1.60;;;;;;;;;;5061533;28;20257;-52
2023/03/16 01:19:34;;;;;;;4.53;2.00;;;;;;;;;;5062950;28;20235;-52
2023/03/16 01:22:01;;;;;;;3.60;1.93;;;;;;;;;;5059976;28;20250;-52
2023/03/16 01:24:27;;;;;;;3.40;1.37;;;;;;;;;;5061129;28;20818;-52
2023/03/16 01:26:54;;;;;;;4.23;1.70;;;;;;;;;;5057262;28;20259;-52
2023/03/16 01:29:21;;;;;;;4.80;1.63;;;;;;;;;;5063425;28;20325;-52
2023/03/16 01:31:48;;;;;;;5.43;2.00;;;;;;;;;;5060757;28;20243;-52
2023/03/16 01:34:16;;;;;;;7.60;2.33;;;;;;;;;;5063302;28;20228;-52
2023/03/16 01:36:45;;;;;;;2.37;1.80;;;;;;;;;;5060559;28;20773;-52
2023/03/16 01:39:11;;;;;;;3.13;2.17;;;;;;;;;;5060667;28;20520;-52
2023/03/16 01:41:38;;;;;;;4.30;1.73;;;;;;;;;;5060418;28;20908;-52
2023/03/16 01:44:05;;;;;;;2.73;1.90;;;;;;;;;;5062417;28;20240;-52
2023/03/16 01:46:31;;;;;;;7.30;2.53;;;;;;;;;;5066423;28;20735;-52
2023/03/16 01:49:00;;;;;;;2.70;1.20;;;;;;;;;;5065717;28;20953;-52
2023/03/16 01:51:29;;;;;;;3.27;1.87;;;;;;;;;;5065411;28;20233;-51
2023/03/16 01:53:58;;;;;;;4.17;1.90;;;;;;;;;;5064210;28;20324;-52
2023/03/16 01:56:26;;;;;;;5.90;2.73;;;;;;;;;;5067116;28;20309;-53
2023/03/16 01:58:57;;;;;;;1.93;1.40;;;;;;;;;;5072856;28;20580;-60
2023/03/16 02:01:24;;;;;;;7.10;2.43;;;;;;;;;;5065555;28;20722;-52
2023/03/16 02:03:54;;;;;;;3.07;2.33;;;;;;;;;;5068208;28;20712;-51
2023/03/16 02:06:21;;;;;;;1.87;1.50;;;;;;;;;;5065547;28;20234;-51
2023/03/16 02:08:49;;;;;;;6.07;2.10;;;;;;;;;;5062064;28;20234;-52
2023/03/16 02:11:17;;;;;;;3.07;2.23;;;;;;;;;;5065090;28;20318;-51
2023/03/16 02:13:44;;;;;;;3.77;1.97;;;;;;;;;;5062458;28;20309;-52
2023/03/16 02:16:12;;;;;;;4.90;2.43;;;;;;;;;;5066080;28;20227;-51
2023/03/16 02:18:38;;;;;;;3.37;1.60;;;;;;;;;;5065933;28;20735;-51
2023/03/16 02:21:06;;;;;;;4.83;1.90;;;;;;;;;;5056798;28;20234;-52
2023/03/16 02:23:33;;;;;;;6.37;1.90;;;;;;;;;;5063442;28;20250;-52
2023/03/16 02:26:03;;;;;;;3.20;1.63;;;;;;;;;;5064083;28;21515;-52
2023/03/16 02:28:34;;;;;;;3.63;1.70;;;;;;;;;;5065109;28;20804;-51
2023/03/16 02:31:02;;;;;;;2.77;1.53;;;;;;;;;;5065558;28;20249;-52
2023/03/16 02:33:30;;;;;;;2.13;1.53;;;;;;;;;;5066218;28;20284;-51
2023/03/16 02:35:57;;;;;;;2.80;1.37;;;;;;;;;;5065588;28;20725;-52
2023/03/16 02:38:23;;;;;;;4.83;2.10;;;;;;;;;;5065003;28;20230;-54
2023/03/16 02:40:56;;;;;;;3.27;1.50;;;;;;;;;;5066197;28;20334;-51
2023/03/16 02:43:24;;;;;;;5.97;1.90;;;;;;;;;;5065123;28;20238;-52
2023/03/16 02:45:54;;;;;;;4.40;1.67;;;;;;;;;;5064429;28;20268;-51
2023/03/16 02:48:23;;;;;;;2.30;1.70;;;;;;;;;;5066875;28;20768;-52
2023/03/16 02:50:51;;;;;;;2.70;1.47;;;;;;;;;;5071902;28;20242;-53
2023/03/16 02:53:18;;;;;;;5.73;2.40;;;;;;;;;;5079518;28;20238;-52
2023/03/16 02:55:45;;;;;;;8.37;2.67;;;;;;;;;;5071459;28;20655;-53
2023/03/16 02:58:11;;;;;;;6.23;2.90;;;;;;;;;;5073954;28;20241;-53
2023/03/16 03:00:38;;;;;;;3.40;1.47;;;;;;;;;;5079140;28;20253;-52
2023/03/16 03:03:07;;;;;;;4.00;1.83;;;;;;;;;;5078453;28;20234;-55
2023/03/16 03:05:35;;;;;;;3.37;1.73;;;;;;;;;;5076823;28;20238;-52
2023/03/16 03:08:03;;;;;;;3.90;1.50;;;;;;;;;;5067435;28;20241;-52
2023/03/16 03:10:30;;;;;;;3.33;1.73;;;;;;;;;;5075004;28;20267;-51
2023/03/16 03:12:57;;;;;;;3.23;1.40;;;;;;;;;;5070298;28;20242;-52
2023/03/16 03:15:23;;;;;;;6.33;1.60;;;;;;;;;;5072134;28;20340;-59
2023/03/16 03:17:50;;;;;;;3.53;1.57;;;;;;;;;;5073647;28;20253;-51
2023/03/16 03:20:18;;;;;;;3.93;1.43;;;;;;;;;;5074592;28;20260;-51
2023/03/16 03:22:47;;;;;;;1.47;1.20;;;;;;;;;;5068575;28;20620;-52
2023/03/16 03:25:15;;;;;;;6.40;2.07;;;;;;;;;;5069872;28;20306;-53
2023/03/16 03:27:42;;;;;;;4.53;1.77;;;;;;;;;;5063934;28;20296;-53
2023/03/16 03:30:09;;;;;;;3.13;1.63;;;;;;;;;;5061241;28;20232;-53
2023/03/16 03:32:36;;;;;;;4.40;2.10;;;;;;;;;;5062330;28;20246;-52
2023/03/16 03:35:02;;;;;;;5.10;2.50;;;;;;;;;;5061775;28;20241;-51
2023/03/16 03:37:29;;;;;;;3.33;1.33;;;;;;;;;;5063426;28;20226;-52
2023/03/16 03:39:57;;;;;;;5.80;1.73;;;;;;;;;;5062590;28;20234;-52
2023/03/16 03:42:24;;;;;;;5.90;1.77;;;;;;;;;;5062822;28;20801;-54
2023/03/16 03:44:51;;;;;;;3.37;2.03;;;;;;;;;;5064278;28;20236;-52
2023/03/16 03:47:17;;;;;;;9.33;1.87;;;;;;;;;;5062822;28;20230;-53
2023/03/16 03:49:44;;;;;;;8.17;1.93;;;;;;;;;;5064786;28;20229;-52
2023/03/16 03:52:11;;;;;;;2.40;1.63;;;;;;;;;;5063637;28;20726;-53
2023/03/16 03:54:37;;;;;;;2.87;1.77;;;;;;;;;;5064032;28;20248;-52
2023/03/16 03:57:05;;;;;;;3.97;1.63;;;;;;;;;;5063450;28;20727;-53
2023/03/16 03:59:32;;;;;;;6.80;1.90;;;;;;;;;;5061491;28;20283;-51
2023/03/16 04:01:59;;;;;;;3.97;1.93;;;;;;;;;;5069463;28;20788;-52
2023/03/16 04:04:25;;;;;;;6.73;2.10;;;;;;;;;;5062715;28;20237;-53
2023/03/16 04:06:52;;;;;;;3.43;1.57;;;;;;;;;;5065275;28;20245;-52
2023/03/16 04:09:18;;;;;;;3.27;1.63;;;;;;;;;;5061749;28;20317;-52
2023/03/16 04:11:45;;;;;;;4.40;1.93;;;;;;;;;;5061418;28;20255;-52
2023/03/16 04:14:13;;;;;;;4.60;2.20;;;;;;;;;;5061682;28;21001;-52
2023/03/16 04:16:42;;;;;;;3.20;1.60;;;;;;;;;;5057746;28;20254;-51
2023/03/16 04:19:10;;;;;;;2.03;1.33;;;;;;;;;;5063445;28;20664;-52
2023/03/16 04:21:37;;;;;;;3.17;1.90;;;;;;;;;;5055957;28;20316;-53
2023/03/16 04:24:04;;;;;;;4.77;2.17;;;;;;;;;;5056681;28;20237;-52
2023/03/16 04:26:31;;;;;;;4.97;2.07;;;;;;;;;;5062325;28;20477;-51
2023/03/16 04:28:58;;;;;;;5.40;1.90;;;;;;;;;;5062841;28;20238;-52
2023/03/16 04:31:26;;;;;;;4.57;2.53;;;;;;;;;;5062843;28;20241;-52
2023/03/16 04:33:54;;;;;;;2.40;2.00;;;;;;;;;;5065060;28;20232;-57
2023/03/16 04:36:23;;;;;;;3.87;1.83;;;;;;;;;;5064757;28;20223;-52
2023/03/16 04:38:50;;;;;;;6.03;2.43;;;;;;;;;;5060162;28;20717;-51
2023/03/16 04:41:17;;;;;;;2.80;2.60;;;;;;;;;;5062140;28;20264;-52
2023/03/16 04:43:43;;;;;;;4.87;2.10;;;;;;;;;;5055726;28;20253;-51
2023/03/16 04:46:10;;;;;;;3.70;1.93;;;;;;;;;;5061947;28;20231;-51
2023/03/16 04:48:38;;;;;;;2.50;2.30;;;;;;;;;;5062989;28;20241;-52
2023/03/16 04:51:05;;;;;;;8.37;2.40;;;;;;;;;;5061763;28;20662;-52
2023/03/16 04:53:32;;;;;;;6.83;1.67;;;;;;;;;;5064157;28;20237;-53
2023/03/16 04:55:58;;;;;;;5.47;1.80;;;;;;;;;;5062572;28;20238;-52
2023/03/16 04:58:25;;;;;;;2.90;2.07;;;;;;;;;;5062510;28;20609;-51
2023/03/16 05:00:52;;;;;;;4.43;2.30;;;;;;;;;;5057183;28;20716;-52
2023/03/16 05:03:18;;;;;;;3.90;1.73;;;;;;;;;;5058869;28;20238;-52
2023/03/16 05:05:48;;;;;;;3.90;2.23;;;;;;;;;;5063619;28;20580;-52
2023/03/16 05:08:15;;;;;;;4.97;2.70;;;;;;;;;;5061567;28;20730;-52
2023/03/16 05:10:43;;;;;;;2.53;1.90;;;;;;;;;;5063272;28;20226;-52
2023/03/16 05:13:10;;;;;;;2.97;2.03;;;;;;;;;;5061739;28;20250;-52
2023/03/16 05:15:36;;;;;;;11.00;2.30;;;;;;;;;;5062137;28;20777;-53
2023/03/16 05:18:03;;;;;;;2.47;1.87;;;;;;;;;;5062521;28;20238;-51
2023/03/16 05:20:31;;;;;;;8.20;2.00;;;;;;;;;;5064781;28;20231;-52
2023/03/16 05:22:59;;;;;;;5.37;2.47;;;;;;;;;;5067327;28;20312;-53
2023/03/16 05:25:25;;;;;;;6.23;2.33;;;;;;;;;;5067592;28;20254;-53
2023/03/16 05:27:53;;;;;;;5.57;2.50;;;;;;;;;;5066809;28;20242;-52
2023/03/16 05:30:20;;;;;;;12.80;3.93;;;;;;;;;;5066815;28;20240;-51
2023/03/16 05:32:46;;;;;;;5.17;2.47;;;;;;;;;;5067070;28;20235;-53
2023/03/16 05:35:13;;;;;;;3.83;2.37;;;;;;;;;;5064784;28;20263;-54
2023/03/16 05:37:40;;;;;;;2.67;1.90;;;;;;;;;;5066816;28;20230;-53
2023/03/16 05:40:15;;;;;;;2.97;1.97;;;;;;;;;;5066887;28;20239;-52
2023/03/16 05:42:42;;;;;;;4.47;1.70;;;;;;;;;;5066839;28;20247;-53
2023/03/16 05:45:10;;;;;;;6.87;2.17;;;;;;;;;;5065614;28;20245;-52
2023/03/16 05:47:36;;;;;;;4.60;2.20;;;;;;;;;;5066657;28;20244;-51
2023/03/16 05:50:03;;;;;;;4.57;2.10;;;;;;;;;;5067211;28;20229;-51
2023/03/16 05:52:30;;;;;;;6.53;2.00;;;;;;;;;;5069193;28;20818;-55
2023/03/16 05:54:57;;;;;;;7.53;1.90;;;;;;;;;;5074678;28;20238;-51
2023/03/16 05:57:25;;;;;;;5.20;2.37;;;;;;;;;;5066360;28;20390;-58
2023/03/16 05:59:52;;;;;;;6.27;2.00;;;;;;;;;;5063751;28;20248;-52
2023/03/16 06:02:18;;;;;;;4.20;2.23;;;;;;;;;;5062376;28;20325;-52
2023/03/16 06:04:45;;;;;;;4.53;2.03;;;;;;;;;;5066778;28;20231;-52
2023/03/16 06:07:11;;;;;;;3.63;2.10;;;;;;;;;;5066278;28;20705;-52
2023/03/16 06:09:38;;;;;;;3.00;1.77;;;;;;;;;;5065470;28;20237;-53
2023/03/16 06:12:08;;;;;;;4.73;2.20;;;;;;;;;;5066698;28;20234;-52
2023/03/16 06:14:36;;;;;;;3.30;2.50;;;;;;;;;;5066807;28;20310;-52
2023/03/16 06:17:02;;;;;;;3.60;2.60;;;;;;;;;;5063848;28;20774;-52
2023/03/16 06:19:29;;;;;;;2.93;2.10;;;;;;;;;;5066897;28;20237;-52
2023/03/16 06:21:55;;;;;;;3.93;2.73;;;;;;;;;;5065990;28;20325;-52
2023/03/16 06:24:22;;;;;;;4.60;2.90;;;;;;;;;;5065947;28;20240;-52
2023/03/16 06:26:48;;;;;;;2.67;2.00;;;;;;;;;;5065620;28;20237;-52
2023/03/16 06:29:15;;;;;;;5.60;2.40;;;;;;;;;;5066526;28;20705;-52
2023/03/16 06:31:43;;;;;;;2.80;2.10;;;;;;;;;;5064713;28;20287;-53
2023/03/16 06:34:10;;;;;;;2.87;2.17;;;;;;;;;;5065503;28;20287;-52
2023/03/16 06:36:38;;;;;;;4.40;2.03;;;;;;;;;;5059836;28;20234;-53
2023/03/16 06:39:05;;;;;;;5.40;2.20;;;;;;;;;;5065369;28;20343;-52
2023/03/16 06:41:31;;;;;;;3.53;2.13;;;;;;;;;;5066429;28;20798;-52
2023/03/16 06:44:00;;;;;;;4.97;2.57;;;;;;;;;;5066923;28;20717;-52
2023/03/16 06:46:26;;;;;;;4.27;2.77;;;;;;;;;;5065611;28;20825;-51
2023/03/16 06:48:54;;;;;;;6.57;3.17;;;;;;;;;;5065065;28;20744;-51
2023/03/16 06:51:21;;;;;;;6.63;2.83;;;;;;;;;;5065007;28;20276;-53
2023/03/16 06:53:47;;;;;;;13.57;3.63;;;;;;;;;;5066206;28;20674;-53
2023/03/16 06:56:14;;;;;;;3.63;2.83;;;;;;;;;;5065884;28;20922;-52
2023/03/16 06:58:40;;;;;;;5.30;2.03;;;;;;;;;;5063924;28;20234;-52
2023/03/16 07:01:07;;;;;;;4.77;2.73;;;;;;;;;;5064889;28;20241;-52
2023/03/16 07:03:34;;;;;;;6.40;2.63;;;;;;;;;;5066823;28;20226;-53
2023/03/16 07:06:02;;;;;;;3.50;2.80;;;;;;;;;;5064588;28;20327;-53
2023/03/16 07:08:28;;;;;;;8.00;2.70;;;;;;;;;;5062877;28;20936;-51
2023/03/16 07:10:55;;;;;;;6.60;2.97;;;;;;;;;;5065949;28;20274;-59
2023/03/16 07:13:22;;;;;;;3.37;2.73;;;;;;;;;;5065360;28;20768;-53
2023/03/16 07:15:51;;;;;;;4.57;2.80;;;;;;;;;;5066769;28;20238;-51
2023/03/16 07:18:17;;;;;;;3.27;2.00;;;;;;;;;;5065061;28;20269;-51
2023/03/16 07:20:44;;;;;;;4.77;2.23;;;;;;;;;;5063110;28;20825;-52
2023/03/16 07:23:12;;;;;;;7.13;3.90;;;;;;;;;;5064342;28;20249;-52
2023/03/16 07:25:39;;;;;;;6.43;2.60;;;;;;;;;;5064835;28;20234;-53
2023/03/16 07:28:05;;;;;;;4.17;3.67;;;;;;;;;;5063364;28;20944;-51
2023/03/16 07:30:32;;;;;;;7.17;2.83;;;;;;;;;;5068048;28;20227;-53
2023/03/16 07:32:59;;;;;;;4.67;2.17;;;;;;;;;;5066286;28;20785;-53
2023/03/16 07:35:25;;;;;;;6.50;2.37;;;;;;;;;;5059747;28;20862;-52
2023/03/16 07:37:51;;;;;;;7.10;3.10;;;;;;;;;;5062640;28;20242;-52
2023/03/16 07:40:19;;;;;;;6.30;2.57;;;;;;;;;;5068496;28;20237;-53
2023/03/16 07:42:46;;;;;;;4.50;2.13;;;;;;;;;;5064204;28;20241;-53
2023/03/16 07:45:13;;;;;;;5.70;2.20;;;;;;;;;;5058717;28;20666;-53
2023/03/16 07:47:40;;;;;;;5.67;1.87;;;;;;;;;;5062180;28;20230;-52
2023/03/16 07:50:07;;;;;;;4.50;2.20;;;;;;;;;;5063962;28;20230;-51
2023/03/16 07:52:34;;;;;;;3.50;2.20;;;;;;;;;;5061848;28;20237;-51
2023/03/16 07:55:00;;;;;;;4.97;1.97;;;;;;;;;;5062447;28;20241;-52
2023/03/16 07:57:28;;;;;;;5.60;2.37;;;;;;;;;;5057480;28;20645;-52
2023/03/16 07:59:55;;;;;;;6.90;1.90;;;;;;;;;;5062497;28;20230;-52
2023/03/16 08:02:21;;;;;;;3.83;1.97;;;;;;;;;;5065756;28;20284;-52
2023/03/16 08:04:48;;;;;;;3.43;2.50;;;;;;;;;;5063598;28;20230;-52
2023/03/16 08:07:15;;;;;;;3.90;1.90;;;;;;;;;;5064745;28;20237;-51
2023/03/16 08:09:41;;;;;;;5.03;1.77;;;;;;;;;;5062814;28;20229;-52
2023/03/16 08:12:09;;;;;;;5.30;1.80;;;;;;;;;;5061388;28;20309;-51
2023/03/16 08:14:37;;;;;;;3.00;1.70;;;;;;;;;;5064440;28;20953;-51
2023/03/16 08:17:04;;;;;;;2.50;1.40;;;;;;;;;;5059841;28;20271;-51
2023/03/16 08:19:31;;;;;;;2.40;1.77;;;;;;;;;;5064917;28;20324;-52
2023/03/16 08:21:59;;;;;;;3.23;1.87;;;;;;;;;;5063504;28;20246;-51
2023/03/16 08:24:26;;;;;;;3.47;1.43;;;;;;;;;;5064356;28;20227;-51
2023/03/16 08:26:53;;;;;;;4.73;1.80;;;;;;;;;;5057494;28;20916;-52
2023/03/16 08:29:20;;;;;;;6.87;2.10;;;;;;;;;;5057447;28;20227;-52
2023/03/16 08:31:48;;;;;;;2.43;1.43;;;;;;;;;;5054117;28;20235;-53
2023/03/16 08:34:16;;;;;;;4.50;2.43;;;;;;;;;;5064348;28;20239;-58
2023/03/16 08:36:43;;;;;;;7.63;2.73;;;;;;;;;;5069134;28;20250;-53
2023/03/16 08:39:10;;;;;;;6.73;2.17;;;;;;;;;;5075226;28;20266;-55
2023/03/16 08:41:36;;;;;;;3.57;2.63;;;;;;;;;;5070226;28;20242;-50
2023/03/16 08:44:03;;;;;;;5.83;1.80;;;;;;;;;;5073278;28;20295;-55
2023/03/16 08:46:30;;;;;;;2.20;1.73;;;;;;;;;;5082714;28;20303;-53
2023/03/16 08:48:58;;;;;;;6.47;2.13;;;;;;;;;;5064592;28;20227;-52
2023/03/16 08:51:25;;;;;;;2.57;1.30;;;;;;;;;;5039508;28;20320;-51
2023/03/16 08:53:52;;;;;;;4.93;1.50;;;;;;;;;;5056462;28;20226;-52
2023/03/16 08:56:19;;;;;;;3.70;1.10;;;;;;;;;;5065279;28;20238;-52
2023/03/16 08:58:46;;;;;;;3.83;1.00;;;;;;;;;;5067903;28;20234;-52
2023/03/16 09:01:13;;;;;;;3.60;1.50;;;;;;;;;;5066535;28;20234;-53
2023/03/16 09:03:40;;;;;;;5.57;1.13;;;;;;;;;;5054961;28;20233;-53
2023/03/16 09:06:09;;;;;;;1.73;1.57;;;;;;;;;;5066021;28;20579;-52
2023/03/16 09:08:37;;;;;;;1.80;1.17;;;;;;;;;;5064279;28;20687;-52
2023/03/16 09:11:06;;;;;;;3.77;1.90;;;;;;;;;;5064024;28;20223;-51
2023/03/16 09:13:33;;;;;;;2.53;1.60;;;;;;;;;;5063131;28;20226;-52
2023/03/16 09:16:00;;;;;;;3.60;1.53;;;;;;;;;;5063476;28;20281;-52
2023/03/16 09:18:26;;;;;;;4.13;1.20;;;;;;;;;;5064028;28;20247;-53
2023/03/16 09:20:53;;;;;;;2.90;1.43;;;;;;;;;;5065881;28;20727;-52
2023/03/16 09:23:20;;;;;;;2.23;1.33;;;;;;;;;;5062461;28;20262;-53
2023/03/16 09:25:47;;;;;;;2.90;1.30;;;;;;;;;;5062827;28;20322;-52
2023/03/16 09:28:13;;;;;;;3.67;1.60;;;;;;;;;;5062656;28;20318;-52
2023/03/16 09:30:41;;;;;;;4.53;1.40;;;;;;;;;;5066266;28;20229;-52
2023/03/16 09:33:07;;;;;;;6.03;1.67;;;;;;;;;;5062353;28;20257;-52
2023/03/16 09:35:35;;;;;;;6.10;2.30;;;;;;;;;;5058020;28;20233;-51
2023/03/16 09:38:02;;;;;;;2.03;1.57;;;;;;;;;;5060218;28;20520;-53
2023/03/16 09:40:31;;;;;;;2.57;1.30;;;;;;;;;;5065013;28;20232;-51
2023/03/16 09:43:13;;;;;;;3.93;1.77;;;;;;;;;;5065406;28;20240;-52
2023/03/16 09:45:43;;;;;;;2.10;1.30;;;;;;;;;;5068856;28;20288;-52
2023/03/16 09:48:10;;;;;;;4.53;1.00;;;;;;;;;;5071857;28;20276;-52
2023/03/16 09:50:39;;;;;;;1.77;1.13;;;;;;;;;;5068392;28;20269;-55
2023/03/16 09:53:10;;;;;;;2.10;1.20;;;;;;;;;;5068736;28;20258;-54
2023/03/16 09:55:55;;;;;;;4.60;1.40;;;;;;;;;;5071228;28;20249;-52
2023/03/16 10:07:03;;;;;;;3.77;1.30;;;;;;;;;;5057537;28;20267;-52
2023/03/16 10:09:32;;;;;;;4.67;1.07;;;;;;;;;;5067560;28;20325;-52
2023/03/16 10:12:01;;;;;;;0.93;0.93;;;;;;;;;;5060791;28;20316;-52
2023/03/16 10:14:32;;;;;;;1.43;1.10;;;;;;;;;;5059554;28;20228;-52
2023/03/16 10:17:01;;;;;;;2.33;1.07;;;;;;;;;;5066035;28;20231;-51
2023/03/16 10:19:31;;;;;;;1.00;0.80;;;;;;;;;;5063870;28;20277;-52
2023/03/16 10:22:00;;;;;;;5.07;1.50;;;;;;;;;;5061097;28;20301;-51
2023/03/16 10:24:36;;;;;;;4.93;1.33;;;;;;;;;;5060473;28;20227;-52
2023/03/16 10:27:03;;;;;;;1.37;1.07;;;;;;;;;;5065277;28;20325;-51
2023/03/16 10:29:35;;;;;;;6.33;1.40;;;;;;;;;;5063736;28;20603;-54
2023/03/16 10:32:07;;;;;;;2.70;1.17;;;;;;;;;;5059778;28;20318;-53
2023/03/16 10:34:34;;;;;;;2.73;1.20;;;;;;;;;;5061801;28;20227;-52
2023/03/16 10:37:01;;;;;;;2.53;1.10;;;;;;;;;;5064166;28;20292;-52
2023/03/16 10:39:35;;;;;;;1.50;1.03;;;;;;;;;;5061805;28;20285;-51
2023/03/16 10:42:01;;;;;;;1.33;1.13;;;;;;;;;;5064292;28;20243;-52
2023/03/16 10:44:29;;;;;;;23.40;17.13;;;;;;;;;;5061506;28;20306;-51
2023/03/16 10:47:02;;;;;;;10.40;7.90;;;;;;;;;;5059127;28;20224;-54
2023/03/16 10:49:29;;;;;;;5.87;1.60;;;;;;;;;;5054573;28;20294;-52
2023/03/16 10:51:58;;;;;;;3.60;1.07;;;;;;;;;;5058729;28;21261;-52
2023/03/16 10:54:28;;;;;;;3.47;1.47;;;;;;;;;;5059054;28;20223;-52
2023/03/16 10:56:55;;;;;;;3.30;1.97;;;;;;;;;;5060301;28;20318;-53
2023/03/16 10:59:27;;;;;;;2.20;1.17;;;;;;;;;;5061673;28;20286;-52
2023/03/16 11:01:54;;;;;;;3.03;1.00;;;;;;;;;;5056934;28;20261;-52
2023/03/16 11:04:21;;;;;;;2.53;1.33;;;;;;;;;;5062254;28;20231;-52
2023/03/16 11:06:49;;;;;;;1.23;0.93;;;;;;;;;;5058772;28;20895;-51
2023/03/16 11:09:20;;;;;;;4.60;1.70;;;;;;;;;;5056482;28;20669;-52
2023/03/16 11:11:48;;;;;;;2.17;1.13;;;;;;;;;;5055969;28;20444;-53
2023/03/16 11:14:15;;;;;;;3.70;1.70;;;;;;;;;;5066455;28;20808;-53
2023/03/16 11:16:43;;;;;;;2.97;1.10;;;;;;;;;;5076857;28;20322;-52
2023/03/16 11:19:14;;;;;;;2.30;1.00;;;;;;;;;;5082049;28;20318;-55
2023/03/16 11:21:48;;;;;;;1.53;1.00;;;;;;;;;;5078759;28;20227;-52
2023/03/16 11:24:16;;;;;;;1.97;0.97;;;;;;;;;;5076174;28;20391;-52
2023/03/16 11:26:44;;;;;;;2.63;1.50;;;;;;;;;;5082070;28;20223;-52
2023/03/16 11:29:14;;;;;;;4.23;1.60;;;;;;;;;;5066137;28;20238;-52
2023/03/16 11:31:42;;;;;;;3.03;1.10;;;;;;;;;;5060283;28;20231;-52
2023/03/16 11:34:13;;;;;;;2.13;0.90;;;;;;;;;;5064828;28;20246;-51
2023/03/16 11:36:44;;;;;;;1.37;0.87;;;;;;;;;;5064080;28;20858;-51
2023/03/16 11:39:16;;;;;;;2.83;1.23;;;;;;;;;;5055554;28;20740;-53
2023/03/16 11:41:47;;;;;;;2.23;1.20;;;;;;;;;;5056498;28;20238;-52
2023/03/16 11:44:18;;;;;;;1.30;1.07;;;;;;;;;;5068556;28;20327;-52
2023/03/16 11:46:47;;;;;;;1.47;1.10;;;;;;;;;;5071615;28;20783;-50
2023/03/16 11:49:25;;;;;;;1.87;1.00;;;;;;;;;;5061158;28;20238;-52
2023/03/16 11:51:55;;;;;;;2.77;1.60;;;;;;;;;;5060740;28;20234;-52
2023/03/16 11:54:36;;;;;;;4.93;1.27;;;;;;;;;;5064093;28;20238;-52
2023/03/16 11:57:07;;;;;;;1.73;0.87;;;;;;;;;;5059170;28;20745;-52
2023/03/16 11:59:51;;;;;;;2.73;1.20;;;;;;;;;;5056260;28;20228;-52
2023/03/16 12:02:28;;;;;;;4.10;1.17;;;;;;;;;;5063106;28;20713;-51
2023/03/16 12:05:15;;;;;;;2.80;1.50;;;;;;;;;;5061130;28;20314;-53
2023/03/16 12:07:50;;;;;;;7.77;1.77;;;;;;;;;;5060421;28;20233;-51
2023/03/16 12:10:24;;;;;;;3.37;1.10;;;;;;;;;;5060574;28;20266;-51
2023/03/16 12:13:02;;;;;;;2.83;1.10;;;;;;;;;;5058844;28;20305;-54
2023/03/16 12:15:34;;;;;;;1.47;1.10;;;;;;;;;;5058260;28;20238;-52
2023/03/16 12:18:05;;;;;;;6.13;4.23;;;;;;;;;;5065802;28;20235;-53
2023/03/16 12:20:33;;;;;;;2.57;1.93;;;;;;;;;;5061847;28;20234;-53
2023/03/16 12:23:04;;;;;;;1.47;1.27;;;;;;;;;;5062047;28;20238;-51
2023/03/16 12:25:32;;;;;;;1.40;0.77;;;;;;;;;;5066372;28;20227;-53
2023/03/16 12:28:03;;;;;;;2.80;1.10;;;;;;;;;;5066818;28;20705;-53
2023/03/16 12:30:36;;;;;;;4.70;2.17;;;;;;;;;;5064247;28;20314;-52
2023/03/16 12:33:05;;;;;;;3.00;1.03;;;;;;;;;;5063980;28;20574;-51
2023/03/16 12:35:37;;;;;;;2.70;1.03;;;;;;;;;;5062247;28;20227;-54
2023/03/16 12:38:15;;;;;;;2.47;1.33;;;;;;;;;;5059700;28;20778;-52
2023/03/16 12:40:46;;;;;;;2.80;1.30;;;;;;;;;;5060741;28;20304;-52
2023/03/16 12:43:23;;;;;;;2.63;1.23;;;;;;;;;;5060606;28;20242;-52
2023/03/16 12:45:51;;;;;;;3.83;1.27;;;;;;;;;;5056450;28;20230;-51
2023/03/16 12:48:23;;;;;;;1.93;1.00;;;;;;;;;;5057944;28;20601;-51
2023/03/16 12:50:51;;;;;;;2.63;1.50;;;;;;;;;;5046910;28;20239;-52
2023/03/16 12:53:27;;;;;;;1.43;0.77;;;;;;;;;;5051965;28;20244;-52
2023/03/16 12:55:55;;;;;;;1.80;1.20;;;;;;;;;;5062076;28;20234;-51
2023/03/16 12:58:24;;;;;;;5.47;1.87;;;;;;;;;;5063817;28;20223;-51
2023/03/16 13:00:56;;;;;;;3.47;1.10;;;;;;;;;;5053718;28;21849;-53
2023/03/16 13:03:23;;;;;;;2.57;1.57;;;;;;;;;;5059035;28;20239;-52
2023/03/16 13:05:51;;;;;;;3.80;1.13;;;;;;;;;;5058411;28;20656;-51
2023/03/16 13:08:19;;;;;;;2.53;0.97;;;;;;;;;;5061606;28;20322;-52
2023/03/16 13:10:59;;;;;;;1.27;0.87;;;;;;;;;;5058983;28;22445;-52
2023/03/16 13:13:27;;;;;;;1.87;1.00;;;;;;;;;;5061992;28;20222;-52
2023/03/16 13:16:04;;;;;;;1.00;0.83;;;;;;;;;;5062196;28;20231;-52
2023/03/16 13:18:34;;;;;;;1.20;0.83;;;;;;;;;;5056896;28;20222;-51
2023/03/16 13:21:13;;;;;;;1.00;0.93;;;;;;;;;;5058109;28;20306;-51
2023/03/16 13:24:00;;;;;;;3.73;1.20;;;;;;;;;;5062759;28;20254;-52
2023/03/16 13:26:36;;;;;;;3.50;1.10;;;;;;;;;;5051210;28;20223;-51
2023/03/16 13:29:06;;;;;;;1.43;0.60;;;;;;;;;;5061127;28;20231;-52
2023/03/16 13:31:35;;;;;;;0.80;0.80;;;;;;;;;;5055196;28;20240;-53
2023/03/16 13:34:03;;;;;;;4.07;1.30;;;;;;;;;;5057932;28;20278;-51
2023/03/16 13:36:30;;;;;;;1.07;0.90;;;;;;;;;;5059455;28;20263;-52
2023/03/16 13:39:03;;;;;;;2.47;1.00;;;;;;;;;;5057818;28;20224;-53
2023/03/16 13:41:29;;;;;;;0.97;0.80;;;;;;;;;;5060156;28;20831;-52
2023/03/16 13:43:55;;;;;;;2.70;1.03;;;;;;;;;;5061811;28;20235;-54
2023/03/16 13:46:28;;;;;;;0.60;0.60;;;;;;;;;;5062915;28;20261;-52
2023/03/16 13:48:57;;;;;;;1.60;1.30;;;;;;;;;;5063257;28;20219;-51
2023/03/16 13:51:23;;;;;;;1.80;0.83;;;;;;;;;;5065928;28;20223;-51
2023/03/16 13:53:50;;;;;;;1.73;1.50;;;;;;;;;;5064008;28;20723;-51
2023/03/16 13:56:18;;;;;;;2.37;1.20;;;;;;;;;;5059666;28;20296;-52
2023/03/16 13:58:46;;;;;;;1.10;1.00;;;;;;;;;;5063423;28;20709;-53
2023/03/16 14:01:19;;;;;;;2.90;0.87;;;;;;;;;;5064259;28;20665;-52
2023/03/16 14:03:47;;;;;;;1.03;0.70;;;;;;;;;;5064082;28;20334;-53
2023/03/16 14:06:20;;;;;;;2.17;1.10;;;;;;;;;;5070895;28;21214;-53
2023/03/16 14:08:49;;;;;;;1.40;1.00;;;;;;;;;;5063635;28;20331;-52
2023/03/16 14:11:16;;;;;;;1.90;1.20;;;;;;;;;;5075514;28;20262;-55
2023/03/16 14:13:42;;;;;;;1.63;0.80;;;;;;;;;;5074052;28;20235;-55
2023/03/16 14:16:12;;;;;;;1.33;0.80;;;;;;;;;;5082719;28;20230;-53
2023/03/16 14:18:40;;;;;;;1.77;0.73;;;;;;;;;;5064607;28;20930;-58
2023/03/16 14:21:09;;;;;;;2.87;0.77;;;;;;;;;;5066847;28;20231;-53
2023/03/16 14:23:36;;;;;;;2.97;1.00;;;;;;;;;;5065775;28;20663;-52
2023/03/16 14:26:04;;;;;;;0.70;0.70;;;;;;;;;;5060043;28;20733;-52
2023/03/16 14:28:31;;;;;;;1.10;1.10;;;;;;;;;;5063699;28;20237;-52
2023/03/16 14:31:02;;;;;;;1.17;1.00;;;;;;;;;;5061611;28;20231;-51
2023/03/16 14:33:29;;;;;;;5.07;1.10;;;;;;;;;;5066001;28;20238;-55
2023/03/16 14:35:57;;;;;;;7.20;0.77;;;;;;;;;;5061367;28;20230;-52
2023/03/16 14:38:29;;;;;;;1.47;1.10;;;;;;;;;;5063280;28;20253;-52
2023/03/16 14:40:57;;;;;;;2.10;1.20;;;;;;;;;;5068297;28;20643;-53
2023/03/16 14:43:28;;;;;;;2.00;0.70;;;;;;;;;;5062872;28;20834;-53
2023/03/16 14:45:55;;;;;;;1.27;0.97;;;;;;;;;;5063522;28;20544;-53
2023/03/16 14:48:21;;;;;;;1.67;0.90;;;;;;;;;;5057712;28;20394;-51
2023/03/16 14:50:51;;;;;;;2.47;0.80;;;;;;;;;;5059535;28;20920;-53
2023/03/16 14:53:17;;;;;;;2.53;0.70;;;;;;;;;;5064450;28;20231;-52
2023/03/16 14:55:46;;;;;;;2.70;0.87;;;;;;;;;;5065196;28;20319;-51
2023/03/16 14:58:12;;;;;;;1.47;0.80;;;;;;;;;;5064589;28;20238;-51